Time;durP1;ratioP1;P1;durP2;ratioP2;P2;SDS_P1;SDS_P2;PMS_P1;PMS_P2;Temp;Humidity;BMP_temperature;BMP_pressure;BME280_temperature;BME280_humidity;BME280_pressure;Samples;Min_cycle;Max_cycle;Signal;HPM_P1;HPM_P2
2022/03/14 00:02:17;;;;;;;12.43;6.63;;;;;;;4.52;41.03;101573.59;5093549;28;20672;-75
2022/03/14 00:04:44;;;;;;;14.50;6.70;;;;;;;4.32;41.29;101571.25;5094646;28;20516;-75
2022/03/14 00:07:12;;;;;;;14.55;7.20;;;;;;;4.14;42.11;101574.06;5105685;28;20647;-75
2022/03/14 00:09:38;;;;;;;12.50;6.68;;;;;;;4.17;41.89;101576.66;5109587;28;20098;-75
2022/03/14 00:12:07;;;;;;;13.73;6.22;;;;;;;4.12;42.12;101582.75;5099197;28;20094;-75
2022/03/14 00:14:33;;;;;;;11.75;6.30;;;;;;;3.95;42.20;101572.59;5096381;28;20138;-75
2022/03/14 00:17:02;;;;;;;12.02;6.55;;;;;;;4.00;42.86;101570.78;5096534;28;20073;-75
2022/03/14 00:19:31;;;;;;;14.32;7.47;;;;;;;4.03;42.45;101562.13;5100412;28;20495;-75
2022/03/14 00:21:57;;;;;;;13.48;6.65;;;;;;;4.07;42.61;101567.25;5105492;28;20040;-75
2022/03/14 00:24:26;;;;;;;17.27;6.63;;;;;;;4.17;42.32;101565.41;5093841;28;20090;-75
2022/03/14 00:26:52;;;;;;;17.67;7.22;;;;;;;4.20;42.11;101567.97;5102474;28;20047;-75
2022/03/14 00:29:20;;;;;;;11.75;6.40;;;;;;;4.22;42.25;101566.19;5109685;28;20518;-75
2022/03/14 00:31:46;;;;;;;14.18;7.57;;;;;;;4.17;41.90;101570.59;5098703;28;20050;-75
2022/03/14 00:34:14;;;;;;;14.73;6.68;;;;;;;4.23;41.51;101573.97;5106277;28;20054;-75
2022/03/14 00:36:42;;;;;;;11.65;6.47;;;;;;;4.14;41.96;101578.44;5099002;28;20130;-75
2022/03/14 00:39:09;;;;;;;14.98;7.35;;;;;;;3.95;42.22;101575.19;5097653;28;20446;-75
2022/03/14 00:41:37;;;;;;;13.40;6.72;;;;;;;4.00;42.21;101569.91;5082030;28;20036;-75
2022/03/14 00:44:04;;;;;;;14.25;6.97;;;;;;;3.73;42.64;101577.13;5084216;28;20101;-75
2022/03/14 00:46:32;;;;;;;15.68;7.50;;;;;;;3.33;43.44;101578.38;5089919;28;20044;-75
2022/03/14 00:48:58;;;;;;;14.90;7.07;;;;;;;3.09;44.10;101583.78;5089134;28;20055;-74
2022/03/14 00:51:25;;;;;;;16.02;7.38;;;;;;;2.93;43.79;101583.88;5089599;28;20093;-75
2022/03/14 00:53:51;;;;;;;15.50;6.60;;;;;;;2.83;44.36;101590.00;5082273;28;20044;-75
2022/03/14 00:56:20;;;;;;;17.50;7.00;;;;;;;2.69;44.82;101581.47;5084227;28;20056;-75
2022/03/14 00:58:48;;;;;;;14.95;6.93;;;;;;;2.63;44.65;101576.31;5089136;28;20044;-75
2022/03/14 01:01:14;;;;;;;12.93;5.93;;;;;;;2.68;45.19;101581.47;5088644;28;20044;-75
2022/03/14 01:03:41;;;;;;;19.90;7.05;;;;;;;2.57;45.52;101578.94;5089641;28;20185;-75
2022/03/14 01:06:07;;;;;;;15.77;6.75;;;;;;;2.64;45.46;101578.03;5089226;28;20044;-75
2022/03/14 01:08:33;;;;;;;15.52;6.78;;;;;;;2.36;45.68;101579.94;5088796;28;20500;-75
2022/03/14 01:11:00;;;;;;;13.98;6.63;;;;;;;2.58;45.07;101575.50;5088371;28;20052;-75
2022/03/14 01:13:26;;;;;;;12.85;6.18;;;;;;;2.68;45.17;101578.88;5088896;28;20454;-75
2022/03/14 01:15:54;;;;;;;14.43;6.90;;;;;;;2.74;44.94;101576.25;5084088;28;20447;-75
2022/03/14 01:18:21;;;;;;;16.85;7.50;;;;;;;2.93;43.56;101581.31;5077990;28;20076;-75
2022/03/14 01:20:47;;;;;;;16.55;6.80;;;;;;;2.64;43.67;101583.22;5086846;28;20101;-75
2022/03/14 01:23:14;;;;;;;14.15;6.90;;;;;;;2.82;43.32;101583.09;5076167;28;20048;-75
2022/03/14 01:25:42;;;;;;;14.18;6.70;;;;;;;3.21;42.26;101581.09;5069148;28;20044;-75
2022/03/14 01:28:09;;;;;;;14.95;7.07;;;;;;;3.08;42.62;101575.16;5097758;28;20048;-75
2022/03/14 01:30:35;;;;;;;13.48;6.90;;;;;;;3.31;42.10;101593.09;5090125;28;20101;-75
2022/03/14 01:33:03;;;;;;;13.07;6.63;;;;;;;3.36;41.12;101578.38;5089728;28;20616;-75
2022/03/14 01:35:29;;;;;;;13.88;6.45;;;;;;;3.40;41.19;101587.81;5099730;28;20043;-75
2022/03/14 01:37:57;;;;;;;18.98;7.22;;;;;;;3.57;40.95;101593.72;5090213;28;20721;-75
2022/03/14 01:40:24;;;;;;;13.70;6.93;;;;;;;3.57;41.21;101590.28;5102258;28;20050;-75
2022/03/14 01:42:51;;;;;;;14.80;6.88;;;;;;;3.25;41.99;101600.94;5088727;28;20101;-75
2022/03/14 01:45:19;;;;;;;13.35;6.80;;;;;;;3.22;42.26;101601.81;5088726;28;20044;-75
2022/03/14 01:47:47;;;;;;;18.10;6.95;;;;;;;3.26;42.09;101600.91;5090985;28;20040;-75
2022/03/14 01:50:15;;;;;;;12.48;6.20;;;;;;;3.20;42.39;101613.06;5108417;28;20051;-75
2022/03/14 01:52:43;;;;;;;15.45;6.63;;;;;;;3.26;42.02;101618.19;5101325;28;20122;-74
2022/03/14 01:55:10;;;;;;;12.35;6.72;;;;;;;3.14;42.76;101618.31;5091415;28;20534;-75
2022/03/14 01:57:38;;;;;;;16.25;7.13;;;;;;;2.92;43.33;101625.34;5088533;28;20093;-75
2022/03/14 02:00:06;;;;;;;12.68;6.25;;;;;;;3.03;43.13;101623.53;5088088;28;20044;-75
2022/03/14 02:02:33;;;;;;;16.30;7.03;;;;;;;2.98;43.25;101627.03;5086502;28;20093;-75
2022/03/14 02:04:59;;;;;;;16.58;7.47;;;;;;;2.79;43.54;101632.34;5085946;28;20040;-75
2022/03/14 02:07:27;;;;;;;11.52;6.35;;;;;;;2.78;43.78;101633.19;5087056;28;20048;-75
2022/03/14 02:09:54;;;;;;;15.88;6.97;;;;;;;2.44;44.99;101635.09;5083641;28;20098;-75
2022/03/14 02:12:20;;;;;;;15.88;7.28;;;;;;;2.01;46.39;101641.28;5083993;28;20049;-75
2022/03/14 02:14:47;;;;;;;16.50;7.55;;;;;;;1.64;47.30;101637.91;5092385;28;20446;-75
2022/03/14 02:17:15;;;;;;;15.98;7.05;;;;;;;1.48;47.83;101642.19;5092788;28;20098;-75
2022/03/14 02:19:42;;;;;;;16.25;7.72;;;;;;;1.75;47.64;101635.28;5112504;28;20512;-75
2022/03/14 02:22:12;;;;;;;16.30;6.90;;;;;;;1.83;47.26;101636.16;5112402;27;20043;-75
2022/03/14 02:24:38;;;;;;;14.77;7.25;;;;;;;1.93;46.97;101638.72;5112221;27;20104;-75
2022/03/14 02:27:05;;;;;;;15.77;7.13;;;;;;;2.04;46.63;101630.91;5110929;28;20047;-75
2022/03/14 02:29:32;;;;;;;13.38;6.78;;;;;;;1.93;47.08;101635.25;5110353;28;20036;-75
2022/03/14 02:31:59;;;;;;;15.90;7.43;;;;;;;1.91;47.03;101632.69;5107388;27;20044;-75
2022/03/14 02:34:25;;;;;;;15.30;6.50;;;;;;;1.88;46.86;101637.00;5104877;28;20036;-75
2022/03/14 02:36:51;;;;;;;14.00;7.30;;;;;;;1.76;47.51;101634.44;5110371;27;20047;-75
2022/03/14 02:39:19;;;;;;;12.98;6.63;;;;;;;1.67;47.61;101640.47;5108363;28;20051;-75
2022/03/14 02:41:46;;;;;;;12.90;6.63;;;;;;;1.61;47.68;101645.66;5104884;28;20469;-75
2022/03/14 02:44:13;;;;;;;14.38;6.63;;;;;;;1.52;48.04;101647.38;5112961;28;20039;-75
2022/03/14 02:46:40;;;;;;;15.13;7.07;;;;;;;1.66;47.69;101649.13;5113080;27;20384;-75
2022/03/14 02:49:08;;;;;;;16.38;7.28;;;;;;;1.76;47.40;101650.81;5093561;27;20073;-75
2022/03/14 02:51:38;;;;;;;14.63;6.78;;;;;;;1.69;47.38;101650.81;5105943;28;20097;-75
2022/03/14 02:54:05;;;;;;;11.57;6.10;;;;;;;1.66;47.72;101641.34;5099449;28;20052;-75
2022/03/14 02:56:34;;;;;;;14.68;6.72;;;;;;;1.70;47.87;101648.22;5112546;28;20070;-75
2022/03/14 02:59:00;;;;;;;19.02;7.18;;;;;;;1.67;47.72;101650.81;5111561;27;20047;-75
2022/03/14 03:01:26;;;;;;;13.52;6.95;;;;;;;1.56;47.39;101657.72;5093633;28;20492;-74
2022/03/14 03:03:53;;;;;;;13.45;6.10;;;;;;;1.21;48.24;101662.88;5091815;28;20581;-75
2022/03/14 03:06:22;;;;;;;14.70;7.03;;;;;;;1.11;48.63;101662.88;5091836;28;20496;-75
2022/03/14 03:08:49;;;;;;;15.35;6.88;;;;;;;1.01;49.21;101668.84;5090733;28;20044;-75
2022/03/14 03:11:16;;;;;;;12.98;6.63;;;;;;;0.94;49.22;101671.44;5078764;28;20072;-75
2022/03/14 03:13:45;;;;;;;14.05;6.43;;;;;;;0.97;49.19;101673.16;5072476;28;20117;-75
2022/03/14 03:16:15;;;;;;;16.10;7.45;;;;;;;0.96;49.03;101664.53;5097569;28;20109;-75
2022/03/14 03:18:42;;;;;;;12.80;6.38;;;;;;;0.85;49.47;101666.22;5111706;28;20575;-75
2022/03/14 03:21:09;;;;;;;12.68;7.03;;;;;;;1.05;48.84;101673.16;5111547;28;20067;-74
2022/03/14 03:23:35;;;;;;;16.38;7.35;;;;;;;0.72;49.62;101676.53;5110808;27;20109;-75
2022/03/14 03:26:02;;;;;;;13.48;6.82;;;;;;;0.74;49.90;101673.09;5111316;27;20126;-75
2022/03/14 03:28:35;;;;;;;18.77;6.97;;;;;;;0.59;50.15;101673.06;5101092;28;20097;-75
2022/03/14 03:31:04;;;;;;;16.90;6.70;;;;;;;0.52;50.49;101673.84;5093469;28;20036;-75
2022/03/14 03:33:30;;;;;;;13.57;7.30;;;;;;;0.32;51.22;101678.09;5091218;28;20044;-74
2022/03/14 03:35:57;;;;;;;13.52;6.65;;;;;;;0.39;51.05;101679.84;5091411;28;20435;-74
2022/03/14 03:38:23;;;;;;;15.68;6.93;;;;;;;0.19;51.58;101684.88;5100761;28;20048;-75
2022/03/14 03:40:49;;;;;;;14.15;7.10;;;;;;;-0.08;52.47;101687.31;5104561;28;20047;-75
2022/03/14 03:43:16;;;;;;;14.98;7.03;;;;;;;0.22;51.77;101681.47;5095203;28;20392;-75
2022/03/14 03:45:42;;;;;;;16.13;7.22;;;;;;;-0.01;52.16;101694.22;5091458;28;20086;-75
2022/03/14 03:48:10;;;;;;;13.90;6.75;;;;;;;-0.03;52.35;101690.75;5091600;28;20044;-75
2022/03/14 03:50:36;;;;;;;11.32;6.45;;;;;;;0.04;53.17;101686.53;5095502;28;20465;-75
2022/03/14 03:53:03;;;;;;;15.75;6.20;;;;;;;-0.10;54.00;101700.19;5090883;28;20500;-75
2022/03/14 03:55:29;;;;;;;14.98;6.47;;;;;;;-0.34;54.71;101704.28;5090554;28;20036;-74
2022/03/14 03:57:56;;;;;;;13.20;5.95;;;;;;;-0.05;54.01;101697.63;5097387;28;20055;-74
2022/03/14 04:00:23;;;;;;;13.13;6.35;;;;;;;0.11;53.11;101694.28;5101813;28;20040;-75
2022/03/14 04:02:50;;;;;;;12.80;5.72;;;;;;;0.37;51.78;101691.88;5090604;28;20052;-75
2022/03/14 04:05:19;;;;;;;15.75;6.90;;;;;;;0.51;50.81;101690.22;5090648;28;20380;-75
2022/03/14 04:07:46;;;;;;;10.18;5.75;;;;;;;0.63;49.98;101694.56;5091116;28;20050;-74
2022/03/14 04:10:14;;;;;;;15.20;6.97;;;;;;;0.48;50.33;101691.06;5092472;28;20697;-75
2022/03/14 04:12:41;;;;;;;14.05;6.90;;;;;;;0.23;50.67;101691.78;5104221;28;20044;-75
2022/03/14 04:15:09;;;;;;;12.75;6.53;;;;;;;0.25;50.36;101702.13;5110651;28;20415;-75
2022/03/14 04:17:36;;;;;;;14.55;6.63;;;;;;;0.19;50.65;101696.91;5107679;28;20052;-74
2022/03/14 04:20:04;;;;;;;13.73;6.43;;;;;;;0.06;51.57;101701.16;5090575;28;20094;-74
2022/03/14 04:22:32;;;;;;;13.75;5.90;;;;;;;-0.09;51.38;101712.22;5089829;28;20040;-74
2022/03/14 04:24:58;;;;;;;12.27;6.70;;;;;;;-0.36;52.98;101706.84;5089644;28;20046;-74
2022/03/14 04:27:25;;;;;;;21.60;8.20;;;;;;;-0.27;53.07;101717.25;5092529;28;20672;-74
2022/03/14 04:29:51;;;;;;;14.77;6.45;;;;;;;-0.41;53.06;101705.09;5093441;28;20096;-74
2022/03/14 04:32:18;;;;;;;14.75;6.80;;;;;;;-0.29;52.17;101703.47;5110558;28;20047;-74
2022/03/14 04:34:44;;;;;;;13.88;6.43;;;;;;;-0.22;52.92;101700.06;5108357;28;20056;-74
2022/03/14 04:37:11;;;;;;;15.27;6.25;;;;;;;0.28;50.56;101695.25;5070873;28;20090;-75
2022/03/14 04:39:40;;;;;;;13.65;6.55;;;;;;;0.43;49.97;101685.03;5074719;28;20078;-75
2022/03/14 04:42:07;;;;;;;13.45;6.45;;;;;;;0.29;50.44;101697.00;5074504;28;20063;-75
2022/03/14 04:44:34;;;;;;;10.90;6.32;;;;;;;0.10;50.87;101699.44;5088058;28;20048;-75
2022/03/14 04:47:00;;;;;;;13.65;6.82;;;;;;;-0.36;52.07;101700.81;5087474;28;20392;-75
2022/03/14 04:49:27;;;;;;;13.77;6.32;;;;;;;0.00;50.82;101691.66;5086247;28;20069;-75
2022/03/14 04:51:55;;;;;;;13.73;6.47;;;;;;;0.30;50.48;101695.25;5091116;28;20126;-75
2022/03/14 04:54:22;;;;;;;15.85;6.93;;;;;;;0.71;48.59;101687.69;5086562;28;20047;-75
2022/03/14 04:56:50;;;;;;;13.38;6.55;;;;;;;0.66;48.60;101692.88;5087095;28;20066;-75
2022/03/14 04:59:17;;;;;;;15.02;6.75;;;;;;;1.02;47.53;101699.88;5085786;28;20108;-75
2022/03/14 05:01:43;;;;;;;16.27;6.97;;;;;;;0.81;47.99;101689.47;5090822;28;20101;-75
2022/03/14 05:04:10;;;;;;;14.20;6.93;;;;;;;0.82;47.79;101701.50;5094245;28;20120;-75
2022/03/14 05:06:37;;;;;;;14.30;6.28;;;;;;;0.76;48.08;101697.19;5089607;28;20051;-75
2022/03/14 05:09:04;;;;;;;15.80;6.53;;;;;;;0.52;49.11;101701.41;5087126;28;20044;-75
2022/03/14 05:11:32;;;;;;;12.25;6.40;;;;;;;0.82;48.22;101701.50;5078354;28;20120;-75
2022/03/14 05:14:00;;;;;;;16.83;7.43;;;;;;;0.86;48.09;101696.38;5068920;28;20071;-75
2022/03/14 05:16:26;;;;;;;15.98;6.50;;;;;;;0.78;48.04;101694.59;5069507;28;20433;-75
2022/03/14 05:18:53;;;;;;;14.45;7.00;;;;;;;0.12;49.60;101702.88;5083442;28;20077;-74
2022/03/14 05:21:19;;;;;;;15.18;7.45;;;;;;;0.18;49.97;101700.38;5089126;28;20040;-75
2022/03/14 05:23:46;;;;;;;16.80;6.97;;;;;;;-0.12;50.79;101706.19;5089402;28;20077;-75
2022/03/14 05:26:12;;;;;;;12.93;6.63;;;;;;;-0.39;51.89;101699.09;5089792;28;20384;-75
2022/03/14 05:28:39;;;;;;;14.00;6.75;;;;;;;-0.17;51.65;101698.41;5089008;28;20060;-75
2022/03/14 05:31:06;;;;;;;12.07;6.35;;;;;;;-0.12;50.98;101711.34;5084749;28;20560;-76
2022/03/14 05:33:33;;;;;;;13.63;6.15;;;;;;;-0.23;51.53;101705.25;5104215;28;20460;-75
2022/03/14 05:36:01;;;;;;;14.88;6.85;;;;;;;-0.17;50.91;101703.56;5106798;28;20051;-75
2022/03/14 05:38:28;;;;;;;13.18;6.38;;;;;;;-0.08;50.90;101698.50;5108778;28;20069;-75
2022/03/14 05:40:55;;;;;;;17.75;6.50;;;;;;;-0.33;51.73;101706.88;5108992;28;20040;-76
2022/03/14 05:43:26;;;;;;;13.68;6.35;;;;;;;-0.29;51.23;101708.63;5101277;27;20645;-76
2022/03/14 05:45:53;;;;;;;11.13;6.03;;;;;;;0.03;50.92;101706.28;5089407;28;20093;-75
2022/03/14 05:48:21;;;;;;;16.75;6.55;;;;;;;0.07;51.34;101704.59;5094457;28;20092;-75
2022/03/14 05:50:47;;;;;;;16.02;7.35;;;;;;;0.24;50.63;101697.81;5107721;28;20741;-75
2022/03/14 05:53:13;;;;;;;14.52;6.78;;;;;;;-0.09;51.53;101711.34;5109602;28;20055;-75
2022/03/14 05:55:40;;;;;;;17.30;6.60;;;;;;;-0.17;51.88;101719.03;5109476;28;20468;-76
2022/03/14 05:58:06;;;;;;;13.18;6.72;;;;;;;-0.17;52.02;101729.34;5115158;28;20059;-76
2022/03/14 06:00:33;;;;;;;18.55;6.90;;;;;;;-0.06;52.02;101730.28;5120358;27;20076;-75
2022/03/14 06:03:00;;;;;;;14.85;6.47;;;;;;;0.15;51.13;101729.56;5112387;28;20051;-75
2022/03/14 06:05:28;;;;;;;15.43;7.03;;;;;;;-0.17;51.93;101739.66;5109105;28;20100;-75
2022/03/14 06:07:54;;;;;;;14.93;7.47;;;;;;;-0.27;52.36;101726.69;5103844;28;20087;-74
2022/03/14 06:10:21;;;;;;;18.02;6.82;;;;;;;0.03;51.37;101721.75;5096088;28;20112;-75
2022/03/14 06:12:48;;;;;;;15.02;7.53;;;;;;;0.39;50.97;101724.56;5096949;28;20096;-75
2022/03/14 06:15:16;;;;;;;15.55;7.68;;;;;;;0.57;50.75;101739.28;5107775;28;20072;-75
2022/03/14 06:17:44;;;;;;;14.02;7.40;;;;;;;0.98;50.17;101734.28;5092780;28;20544;-75
2022/03/14 06:20:12;;;;;;;14.45;7.28;;;;;;;1.34;49.35;101736.09;5091662;28;20073;-75
2022/03/14 06:22:41;;;;;;;14.25;7.90;;;;;;;1.73;49.53;101736.16;5099443;28;20048;-75
2022/03/14 06:25:08;;;;;;;20.05;8.02;;;;;;;2.08;48.73;101735.25;5107355;28;20043;-75
2022/03/14 06:27:35;;;;;;;14.98;7.93;;;;;;;2.96;44.81;101740.19;5088378;28;20468;-75
2022/03/14 06:30:02;;;;;;;14.25;7.70;;;;;;;3.46;42.73;101732.97;5087276;28;20113;-75
2022/03/14 06:32:34;;;;;;;13.48;7.40;;;;;;;3.30;42.71;101739.13;5105101;28;20310;-75
2022/03/14 06:35:00;;;;;;;18.63;8.38;;;;;;;3.67;43.01;101734.53;5108530;28;20128;-75
2022/03/14 06:37:26;;;;;;;19.73;8.40;;;;;;;4.22;40.70;101734.91;5107294;28;20043;-72
2022/03/14 06:39:54;;;;;;;17.40;8.40;;;;;;;4.53;40.13;101738.06;5107814;28;20457;-72
2022/03/14 06:42:21;;;;;;;13.98;7.85;;;;;;;5.00;40.30;101733.16;5099644;28;20421;-73
2022/03/14 06:44:49;;;;;;;17.92;8.07;;;;;;;5.05;40.72;101740.91;5108474;28;20051;-72
2022/03/14 06:47:17;;;;;;;15.60;8.10;;;;;;;5.35;40.57;101737.91;5109214;28;20048;-72
2022/03/14 06:49:45;;;;;;;19.17;8.35;;;;;;;5.23;39.89;101738.06;5108093;28;20111;-72
2022/03/14 06:52:12;;;;;;;16.27;8.40;;;;;;;5.72;37.76;101740.81;5086964;28;20050;-68
2022/03/14 06:54:39;;;;;;;13.77;7.68;;;;;;;6.76;35.96;101733.69;5085548;28;20046;-69
2022/03/14 06:57:07;;;;;;;16.60;8.45;;;;;;;7.60;34.80;101730.13;5094902;28;20067;-69
2022/03/14 06:59:33;;;;;;;15.48;8.73;;;;;;;8.01;33.37;101738.69;5086170;28;20476;-69
2022/03/14 07:02:00;;;;;;;15.60;7.90;;;;;;;8.02;32.79;101743.03;5092081;28;20105;-69
2022/03/14 07:04:27;;;;;;;19.23;9.18;;;;;;;7.61;34.99;101744.03;5091686;28;20044;-69
2022/03/14 07:06:53;;;;;;;14.77;8.20;;;;;;;7.54;35.01;101750.28;5091590;28;20046;-69
2022/03/14 07:09:20;;;;;;;15.80;8.25;;;;;;;7.72;35.92;101760.31;5090830;28;20093;-69
2022/03/14 07:11:51;;;;;;;15.45;8.65;;;;;;;7.59;35.33;101766.69;5091345;28;20074;-69
2022/03/14 07:14:19;;;;;;;14.65;8.68;;;;;;;8.56;34.67;101759.03;5094590;28;20051;-69
2022/03/14 07:16:45;;;;;;;14.45;8.63;;;;;;;7.33;35.21;101765.53;5086928;28;20674;-70
2022/03/14 07:19:12;;;;;;;18.38;9.98;;;;;;;8.46;34.03;101758.41;5105990;28;20544;-70
2022/03/14 07:21:38;;;;;;;14.57;9.40;;;;;;;8.59;33.29;101758.94;5105682;28;20089;-70
2022/03/14 07:24:05;;;;;;;16.02;9.13;;;;;;;9.31;32.42;101755.13;5104890;28;20050;-70
2022/03/14 07:26:31;;;;;;;15.20;8.55;;;;;;;8.61;31.80;101763.22;5111574;28;20047;-70
2022/03/14 07:28:58;;;;;;;15.85;9.02;;;;;;;8.40;32.31;101766.44;5110411;28;20491;-69
2022/03/14 07:31:26;;;;;;;16.88;9.93;;;;;;;8.05;33.76;101769.94;5108992;28;20396;-69
2022/03/14 07:33:52;;;;;;;15.20;9.60;;;;;;;7.49;33.69;101773.88;5103969;28;20101;-67
2022/03/14 07:36:19;;;;;;;15.30;8.23;;;;;;;8.70;32.12;101760.38;5105584;28;20097;-67
2022/03/14 07:38:46;;;;;;;13.60;8.70;;;;;;;9.19;30.80;101767.69;5092054;28;20466;-67
2022/03/14 07:41:13;;;;;;;17.55;8.70;;;;;;;9.33;31.15;101774.25;5110115;28;20104;-67
2022/03/14 07:43:40;;;;;;;22.50;8.98;;;;;;;9.06;31.44;101768.06;5110328;27;20039;-67
2022/03/14 07:46:07;;;;;;;15.55;9.02;;;;;;;9.21;31.24;101772.84;5091909;28;20048;-67
2022/03/14 07:48:35;;;;;;;16.90;9.07;;;;;;;8.82;30.88;101768.78;5090957;28;20097;-66
2022/03/14 07:51:03;;;;;;;17.77;9.25;;;;;;;9.60;30.23;101765.56;5093013;28;20073;-66
2022/03/14 07:53:29;;;;;;;14.38;8.63;;;;;;;8.62;30.92;101770.19;5084512;28;20048;-66
2022/03/14 07:55:56;;;;;;;15.60;8.75;;;;;;;8.95;31.90;101772.75;5070689;28;20098;-66
2022/03/14 07:58:22;;;;;;;16.77;9.50;;;;;;;8.66;31.72;101790.13;5070584;28;20095;-66
2022/03/14 08:00:48;;;;;;;14.40;8.90;;;;;;;9.22;31.72;101785.91;5083691;28;20051;-66
2022/03/14 08:03:15;;;;;;;18.17;8.52;;;;;;;9.36;31.13;101788.09;5090926;28;20074;-66
2022/03/14 08:05:45;;;;;;;15.65;8.75;;;;;;;10.02;30.82;101789.50;5089222;28;20059;-67
2022/03/14 08:08:11;;;;;;;16.67;9.15;;;;;;;10.92;30.20;101774.16;5082637;28;20568;-67
2022/03/14 08:10:41;;;;;;;16.85;8.93;;;;;;;11.78;28.72;101778.75;5080559;28;20452;-68
2022/03/14 08:13:08;;;;;;;19.15;9.52;;;;;;;11.72;27.30;101778.97;5086938;28;20101;-68
2022/03/14 08:15:35;;;;;;;17.15;9.18;;;;;;;12.19;27.56;101775.25;5107114;28;20093;-68
2022/03/14 08:18:04;;;;;;;15.98;9.32;;;;;;;12.11;27.56;101781.75;5110684;28;20419;-68
2022/03/14 08:20:32;;;;;;;18.20;9.18;;;;;;;12.78;26.77;101769.19;5108694;28;20131;-67
2022/03/14 08:23:02;;;;;;;13.82;9.10;;;;;;;12.97;27.45;101766.59;5105295;28;20105;-67
2022/03/14 08:25:30;;;;;;;13.88;9.15;;;;;;;12.01;26.71;101781.25;5090194;28;20119;-67
2022/03/14 08:27:57;;;;;;;14.13;9.32;;;;;;;11.95;28.49;101781.53;5092385;28;20160;-68
2022/03/14 08:30:23;;;;;;;14.32;8.52;;;;;;;12.56;26.80;101766.63;5097438;28;20044;-68
2022/03/14 08:32:51;;;;;;;16.25;9.05;;;;;;;12.21;28.57;101769.94;5108648;28;20073;-67
2022/03/14 08:35:20;;;;;;;13.52;9.10;;;;;;;13.37;26.62;101770.91;5093753;28;20060;-67
2022/03/14 08:37:48;;;;;;;17.08;9.05;;;;;;;14.27;25.12;101768.19;5090061;28;20048;-67
2022/03/14 08:40:20;;;;;;;17.55;9.43;;;;;;;12.33;26.23;101787.81;5093414;28;20048;-67
2022/03/14 08:42:46;;;;;;;14.10;8.80;;;;;;;12.09;28.64;101792.31;5088780;28;20042;-67
2022/03/14 08:45:14;;;;;;;15.98;9.57;;;;;;;12.05;27.93;101787.25;5089322;28;20100;-67
2022/03/14 08:47:41;;;;;;;17.02;10.25;;;;;;;10.87;28.81;101791.84;5093537;28;20100;-67
2022/03/14 08:50:11;;;;;;;16.83;9.50;;;;;;;11.28;28.83;101783.28;5085870;28;20051;-67
2022/03/14 08:52:38;;;;;;;14.75;8.73;;;;;;;10.92;28.87;101782.03;5089282;28;20114;-67
2022/03/14 08:55:06;;;;;;;15.43;9.35;;;;;;;11.05;31.37;101791.16;5089788;28;20078;-68
2022/03/14 08:57:33;;;;;;;13.82;8.65;;;;;;;10.77;30.30;101796.56;5089566;28;20135;-69
2022/03/14 09:00:00;;;;;;;13.82;8.60;;;;;;;11.44;29.31;101799.31;5087686;28;20051;-69
2022/03/14 09:02:26;;;;;;;18.17;9.35;;;;;;;12.12;29.75;101799.25;5089557;28;20529;-69
2022/03/14 09:04:53;;;;;;;13.15;8.60;;;;;;;12.88;28.41;101802.06;5089614;28;20044;-69
2022/03/14 09:07:26;;;;;;;14.10;9.07;;;;;;;13.25;27.91;101801.31;5085808;28;20048;-69
2022/03/14 09:09:53;;;;;;;20.23;9.35;;;;;;;13.02;27.84;101809.34;5086875;28;20043;-69
2022/03/14 09:12:20;;;;;;;15.52;9.52;;;;;;;13.14;29.47;101814.09;5086335;28;20097;-68
2022/03/14 09:14:48;;;;;;;16.63;10.23;;;;;;;12.77;30.39;101814.00;5089253;28;20051;-68
2022/03/14 09:17:15;;;;;;;19.35;10.52;;;;;;;12.30;30.59;101819.53;5087760;28;20040;-68
2022/03/14 09:19:41;;;;;;;17.83;9.77;;;;;;;13.27;29.08;101820.50;5085714;28;20044;-68
2022/03/14 09:22:08;;;;;;;22.05;10.15;;;;;;;13.60;28.60;101823.34;5085590;28;20052;-68
2022/03/14 09:24:36;;;;;;;17.70;9.77;;;;;;;13.73;28.14;101824.50;5087632;28;20127;-68
2022/03/14 09:27:03;;;;;;;13.48;9.00;;;;;;;13.76;26.81;101815.59;5082887;28;20051;-69
2022/03/14 09:29:29;;;;;;;24.17;10.15;;;;;;;13.65;27.79;101824.88;5085821;28;20040;-68
2022/03/14 09:31:57;;;;;;;15.63;9.70;;;;;;;13.26;27.84;101832.00;5066602;28;20044;-68
2022/03/14 09:34:24;;;;;;;24.33;9.18;;;;;;;12.41;31.21;101843.59;5066770;28;20480;-68
2022/03/14 09:36:50;;;;;;;15.80;9.05;;;;;;;12.23;29.76;101838.25;5066487;28;20515;-69
2022/03/14 09:39:17;;;;;;;18.92;9.90;;;;;;;12.05;30.23;101835.44;5072572;28;20048;-68
2022/03/14 09:41:45;;;;;;;17.73;10.35;;;;;;;11.45;31.27;101841.28;5101046;28;20116;-68
2022/03/14 09:44:15;;;;;;;15.02;9.48;;;;;;;10.17;32.07;101850.19;5104936;28;20040;-68
2022/03/14 09:46:45;;;;;;;21.77;8.20;;;;;;;10.20;33.52;101862.31;5107114;28;20070;-67
2022/03/14 09:49:15;;;;;;;16.67;9.68;;;;;;;9.51;33.82;101860.94;5105482;28;20459;-67
2022/03/14 09:51:42;;;;;;;17.58;9.35;;;;;;;10.11;34.24;101870.47;5103800;28;20046;-67
2022/03/14 09:54:10;;;;;;;16.48;9.68;;;;;;;9.51;33.57;101858.34;5100584;28;20136;-67
2022/03/14 09:56:41;;;;;;;16.55;9.23;;;;;;;9.35;34.76;101856.22;5106331;28;20040;-67
2022/03/14 09:59:09;;;;;;;24.33;9.32;;;;;;;10.57;33.86;101856.72;5106875;28;20419;-67
2022/03/14 10:01:36;;;;;;;16.88;9.38;;;;;;;11.13;32.62;101866.09;5108759;28;20047;-67
2022/03/14 10:04:03;;;;;;;18.23;10.20;;;;;;;11.60;33.04;101871.38;5105553;28;20624;-67
2022/03/14 10:06:30;;;;;;;15.23;9.10;;;;;;;12.43;30.31;101861.94;5108667;28;20044;-67
2022/03/14 10:08:57;;;;;;;16.42;10.07;;;;;;;12.75;29.83;101874.59;5088055;28;20085;-67
2022/03/14 10:11:23;;;;;;;16.17;9.60;;;;;;;12.85;28.55;101872.44;5104526;28;20081;-67
2022/03/14 10:13:49;;;;;;;17.23;10.23;;;;;;;12.93;28.91;101881.72;5088639;28;20043;-66
2022/03/14 10:16:16;;;;;;;18.88;10.43;;;;;;;13.15;29.98;101885.13;5089075;28;20048;-66
2022/03/14 10:18:54;;;;;;;24.27;11.18;;;;;;;13.66;30.02;101878.44;5104511;28;20051;-66
2022/03/14 10:21:33;;;;;;;24.83;10.60;;;;;;;13.73;27.60;101877.22;5104857;28;20039;-67
2022/03/14 10:24:01;;;;;;;16.75;9.80;;;;;;;14.07;27.49;101877.34;5099183;28;20075;-67
2022/03/14 10:26:29;;;;;;;18.17;10.38;;;;;;;14.44;28.34;101879.06;5106333;28;20032;-67
2022/03/14 10:28:56;;;;;;;16.08;10.32;;;;;;;14.38;27.49;101878.50;5104504;28;20052;-68
2022/03/14 10:31:29;;;;;;;19.10;10.52;;;;;;;14.31;27.65;101885.84;5099080;28;20048;-67
2022/03/14 10:34:04;;;;;;;17.80;10.20;;;;;;;13.93;28.35;101886.84;5106680;28;20112;-68
2022/03/14 10:36:46;;;;;;;16.05;10.85;;;;;;;14.17;28.30;101887.44;5102710;28;20415;-67
2022/03/14 10:39:25;;;;;;;18.77;9.93;;;;;;;13.95;27.78;101901.66;5107989;28;20101;-68
2022/03/14 10:42:03;;;;;;;15.60;9.27;;;;;;;14.40;27.82;101903.91;5101502;28;20044;-68
2022/03/14 10:44:30;;;;;;;18.40;10.15;;;;;;;14.33;28.43;101915.66;5112174;28;20051;-68
2022/03/14 10:46:58;;;;;;;14.70;10.27;;;;;;;14.43;28.36;101916.94;5112189;28;20427;-67
2022/03/14 10:49:28;;;;;;;15.98;11.00;;;;;;;14.24;28.71;101910.81;5110568;28;20517;-67
2022/03/14 10:51:58;;;;;;;23.73;10.98;;;;;;;14.70;30.44;101909.44;5108497;28;20076;-68
2022/03/14 10:54:24;;;;;;;17.80;10.50;;;;;;;15.59;29.78;101912.66;5112098;28;20116;-67
2022/03/14 10:57:08;;;;;;;15.98;10.25;;;;;;;16.22;27.78;101912.69;5111489;28;20044;-68
2022/03/14 10:59:40;;;;;;;17.60;10.95;;;;;;;16.00;26.97;101910.41;5102033;28;20451;-68
2022/03/14 11:02:09;;;;;;;19.67;10.90;;;;;;;16.29;27.67;101916.72;5103508;28;20097;-68
2022/03/14 11:04:45;;;;;;;18.67;11.50;;;;;;;16.41;26.18;101921.28;5111107;28;20116;-68
2022/03/14 11:07:14;;;;;;;27.55;11.63;;;;;;;16.29;27.03;101921.16;5109693;28;20043;-67
2022/03/14 11:09:46;;;;;;;16.85;10.57;;;;;;;15.09;31.86;101917.09;5105776;28;20046;-67
2022/03/14 11:12:15;;;;;;;18.23;10.70;;;;;;;15.39;30.36;101917.28;5099113;28;20048;-67
2022/03/14 11:14:42;;;;;;;27.80;10.73;;;;;;;16.14;27.44;101914.09;5090925;28;20457;-66
2022/03/14 11:17:14;;;;;;;19.40;11.10;;;;;;;16.68;28.83;101916.25;5091443;28;20052;-66
2022/03/14 11:19:41;;;;;;;22.27;11.13;;;;;;;16.97;28.72;101922.47;5090934;28;20507;-65
2022/03/14 11:22:11;;;;;;;22.75;11.02;;;;;;;17.56;27.27;101918.81;5104726;28;20113;-66
2022/03/14 11:24:41;;;;;;;18.60;12.07;;;;;;;17.75;29.23;101922.06;5106708;28;20044;-66